createdAt,value
2019-04-21T00:04:53.187Z,3.50
2019-04-21T00:10:18.481Z,3.50
2019-04-21T00:15:24.183Z,3.60
2019-04-21T00:20:42.466Z,3.60
2019-04-21T00:26:05.188Z,3.50
2019-04-21T00:31:24.710Z,3.93
2019-04-21T00:36:39.657Z,3.40
2019-04-21T00:42:08.614Z,3.27
2019-04-21T00:47:26.729Z,3.57
2019-04-21T00:52:56.493Z,3.70
2019-04-21T00:58:13.124Z,3.70
2019-04-21T01:03:28.166Z,3.20
2019-04-21T01:08:44.086Z,3.70
2019-04-21T01:14:05.116Z,3.63
2019-04-21T01:19:16.653Z,3.30
2019-04-21T01:24:19.710Z,3.20
2019-04-21T01:29:58.778Z,3.50
2019-04-21T01:35:10.068Z,3.30
2019-04-21T01:40:29.670Z,3.37
2019-04-21T01:45:45.844Z,3.53
2019-04-21T01:51:04.379Z,3.40
2019-04-21T01:56:40.154Z,2.93
2019-04-21T02:02:00.413Z,2.80
2019-04-21T02:07:16.246Z,3.27
2019-04-21T02:12:36.053Z,3.30
2019-04-21T02:17:47.037Z,3.30
2019-04-21T02:23:20.425Z,3.17
2019-04-21T02:28:30.875Z,3.13
2019-04-21T02:33:54.226Z,2.87
2019-04-21T02:39:16.392Z,2.77
2019-04-21T02:44:26.476Z,2.97
2019-04-21T03:00:28.957Z,2.50
2019-04-21T03:16:23.461Z,3.20
2019-04-21T03:21:45.657Z,2.83
2019-04-21T03:27:11.303Z,3.07
2019-04-21T03:37:42.399Z,3.50
2019-04-21T03:42:52.999Z,3.43
2019-04-21T03:48:11.481Z,3.70
2019-04-21T03:53:25.076Z,3.63
2019-04-21T03:58:55.976Z,3.77
2019-04-21T04:09:52.759Z,3.73
2019-04-21T04:15:03.065Z,3.47
2019-04-21T04:20:31.287Z,3.27
2019-04-21T04:25:42.864Z,3.37
2019-04-21T04:36:30.310Z,3.43
2019-04-21T04:52:32.594Z,3.73
2019-04-21T04:57:53.119Z,3.23
2019-04-21T05:08:34.332Z,3.93
2019-04-21T05:13:36.455Z,3.63
2019-04-21T05:19:06.405Z,3.50
2019-04-21T05:24:01.296Z,3.30
2019-04-21T05:29:15.733Z,3.60
2019-04-21T05:34:42.692Z,3.77
2019-04-21T05:40:05.808Z,3.40
2019-04-21T05:45:47.384Z,3.77
2019-04-21T05:50:46.272Z,4.00
2019-04-21T05:56:12.840Z,4.03
2019-04-21T06:01:38.014Z,3.20
2019-04-21T06:06:51.506Z,4.00
2019-04-21T06:12:03.180Z,3.60
2019-04-21T06:17:25.029Z,3.40
2019-04-21T06:22:36.359Z,3.03
2019-04-21T06:27:57.534Z,3.73
2019-04-21T06:33:16.731Z,3.40
2019-04-21T06:44:33.545Z,3.50
2019-04-21T06:49:21.781Z,3.67
2019-04-21T06:54:44.685Z,3.17
2019-04-21T06:59:55.586Z,3.80
2019-04-21T07:05:15.371Z,3.50
2019-04-21T07:10:31.789Z,3.63
2019-04-21T07:15:53.811Z,3.23
2019-04-21T07:21:06.139Z,3.30
2019-04-21T07:26:28.327Z,3.10
2019-04-21T07:31:46.986Z,3.30
2019-04-21T07:36:57.911Z,3.47
2019-04-21T07:42:13.476Z,2.90
2019-04-21T07:47:53.432Z,2.70
2019-04-21T07:53:21.194Z,3.03
2019-04-21T07:58:43.109Z,2.50
2019-04-21T08:03:57.030Z,3.07
2019-04-21T08:09:07.382Z,2.90
2019-04-21T08:14:31.224Z,2.70
2019-04-21T08:19:42.573Z,2.67
2019-04-21T08:25:04.014Z,2.70
2019-04-21T08:30:21.478Z,2.50
2019-04-21T08:40:58.998Z,2.67
2019-04-21T08:46:16.952Z,2.53
2019-04-21T08:57:10.416Z,2.80
2019-04-21T09:02:34.082Z,2.40
2019-04-21T09:07:49.315Z,2.53
2019-04-21T09:12:58.922Z,2.60
2019-04-21T09:18:18.901Z,2.50
2019-04-21T09:23:39.213Z,2.87
2019-04-21T09:28:48.355Z,2.40
2019-04-21T09:33:59.333Z,2.20
2019-04-21T09:39:20.143Z,2.27
2019-04-21T09:44:38.232Z,2.40
2019-04-21T09:49:51.972Z,2.20
2019-04-21T09:55:14.334Z,2.20
2019-04-21T10:00:29.331Z,2.20
2019-04-21T10:05:43.654Z,2.37
2019-04-21T10:10:59.374Z,2.27
2019-04-21T10:16:36.863Z,2.40
2019-04-21T10:21:52.629Z,2.53
2019-04-21T10:27:10.528Z,2.20
2019-04-21T10:32:26.231Z,2.20
2019-04-21T10:37:55.863Z,2.43
2019-04-21T10:43:00.231Z,2.27
2019-04-21T10:48:16.841Z,1.63
2019-04-21T10:53:34.844Z,2.37
2019-04-21T10:58:52.462Z,2.07
2019-04-21T11:04:27.826Z,1.80
2019-04-21T11:09:42.241Z,2.03
2019-04-21T11:15:01.183Z,2.23
2019-04-21T11:20:17.239Z,2.07
2019-04-21T11:25:33.870Z,2.50
2019-04-21T11:30:50.873Z,2.53
2019-04-21T11:36:07.358Z,2.60
2019-04-21T11:41:23.922Z,2.20
2019-04-21T11:46:40.394Z,2.37
2019-04-21T11:51:56.853Z,2.30
2019-04-21T11:57:20.590Z,2.27
2019-04-21T12:02:31.392Z,2.13
2019-04-21T12:07:47.416Z,2.53
2019-04-21T12:13:04.641Z,2.63
2019-04-21T12:18:20.150Z,2.73
2019-04-21T12:23:38.467Z,2.53
2019-04-21T12:28:55.890Z,2.47
2019-04-21T12:34:14.160Z,2.33
2019-04-21T12:39:30.557Z,2.00
2019-04-21T12:44:47.542Z,2.03
2019-04-21T12:50:04.593Z,2.77
2019-04-21T12:55:26.157Z,2.10
2019-04-21T13:00:40.928Z,2.17
2019-04-21T13:05:58.059Z,2.33
2019-04-21T13:11:15.030Z,2.37
2019-04-21T13:16:31.673Z,2.50
2019-04-21T13:21:47.980Z,2.20
2019-04-21T13:27:05.700Z,2.20
2019-04-21T13:32:21.816Z,2.40
2019-04-21T13:37:39.622Z,2.27
2019-04-21T13:43:00.379Z,2.10
2019-04-21T13:48:12.942Z,2.27
2019-04-21T13:53:28.647Z,2.00
2019-04-21T13:58:46.197Z,1.90
2019-04-21T14:04:02.089Z,2.13
2019-04-21T14:09:17.887Z,1.80
2019-04-21T14:14:34.553Z,1.80
2019-04-21T14:19:51.031Z,1.90
2019-04-21T14:25:09.828Z,2.07
2019-04-21T14:30:26.395Z,2.40
2019-04-21T14:35:43.078Z,2.10
2019-04-21T14:41:00.056Z,1.50
2019-04-21T14:46:40.790Z,2.00
2019-04-21T14:52:01.165Z,1.80
2019-04-21T14:57:16.904Z,1.53
2019-04-21T15:02:33.859Z,1.80
2019-04-21T15:07:50.907Z,1.83
2019-04-21T15:13:07.717Z,2.00
2019-04-21T15:18:23.470Z,1.80
2019-04-21T15:23:40.295Z,1.70
2019-04-21T15:28:57.080Z,1.90
2019-04-21T15:34:13.181Z,2.10
2019-04-21T15:39:29.890Z,1.90
2019-04-21T15:44:45.719Z,1.83
2019-04-21T15:50:07.484Z,1.90
2019-04-21T15:55:39.164Z,1.97
2019-04-21T16:01:00.688Z,1.90
2019-04-21T16:06:19.345Z,1.83
2019-04-21T16:11:37.888Z,2.30
2019-04-21T16:16:54.377Z,2.00
2019-04-21T16:22:10.800Z,1.70
2019-04-21T16:27:27.683Z,2.07
2019-04-21T16:32:43.985Z,2.00
2019-04-21T16:38:01.251Z,1.90
2019-04-21T16:43:18.352Z,1.80
2019-04-21T16:48:35.753Z,1.70
2019-04-21T16:54:01.955Z,1.87
2019-04-21T16:59:21.890Z,1.80
2019-04-21T17:04:38.233Z,1.90
2019-04-21T17:09:54.892Z,1.50
2019-04-21T17:15:31.506Z,1.60
2019-04-21T17:20:41.100Z,1.90
2019-04-21T17:25:47.399Z,1.70
2019-04-21T17:31:04.714Z,1.83
2019-04-21T17:36:21.268Z,1.67
2019-04-21T17:41:42.517Z,1.83
2019-04-21T17:47:01.406Z,1.87
2019-04-21T17:52:23.144Z,1.60
2019-04-21T17:57:57.033Z,1.80
2019-04-21T18:03:27.288Z,1.57
2019-04-21T18:08:30.625Z,1.70
2019-04-21T18:13:30.885Z,1.87
2019-04-21T18:18:46.726Z,1.80
2019-04-21T18:24:10.345Z,2.10
2019-04-21T18:29:21.624Z,2.30
2019-04-21T18:35:01.566Z,2.03
2019-04-21T18:40:22.573Z,1.83
2019-04-21T18:46:22.437Z,1.90
2019-04-21T18:51:20.911Z,2.17
2019-04-21T18:56:50.983Z,1.60
2019-04-21T19:02:02.120Z,1.80
2019-04-21T19:07:25.247Z,2.00
2019-04-21T19:13:16.172Z,1.80
2019-04-21T19:23:33.938Z,1.70
2019-04-21T19:28:46.939Z,2.37
2019-04-21T19:33:48.107Z,2.30
2019-04-21T19:39:03.457Z,2.60
2019-04-21T19:44:33.828Z,2.90
2019-04-21T19:49:55.629Z,3.27
2019-04-21T19:54:50.658Z,2.50
2019-04-21T20:00:08.356Z,2.80
2019-04-21T20:05:35.000Z,2.80
2019-04-21T20:10:59.413Z,2.70
2019-04-21T20:16:21.554Z,2.60
2019-04-21T20:21:18.190Z,2.90
2019-04-21T20:26:39.099Z,2.67
2019-04-21T20:32:17.899Z,2.67
2019-04-21T20:37:25.144Z,3.00
2019-04-21T20:42:40.239Z,2.93
2019-04-21T20:47:50.510Z,2.70
2019-04-21T20:53:24.906Z,2.40
2019-04-21T20:58:34.545Z,2.50
2019-04-21T21:03:56.049Z,2.50
2019-04-21T21:09:14.176Z,2.30
2019-04-21T21:14:31.700Z,2.47
2019-04-21T21:19:55.770Z,2.50
2019-04-21T21:25:11.690Z,2.50
2019-04-21T21:30:22.750Z,2.27
2019-04-21T21:35:41.135Z,2.50
2019-04-21T21:40:56.632Z,2.77
2019-04-21T21:46:15.264Z,2.30
2019-04-21T21:51:38.184Z,2.23
2019-04-21T21:56:41.054Z,2.40
2019-04-21T22:01:58.317Z,2.73
2019-04-21T22:07:16.054Z,2.50
2019-04-21T22:12:40.360Z,2.37
2019-04-21T22:18:12.085Z,2.40
2019-04-21T22:23:12.977Z,2.80
2019-04-21T22:28:25.417Z,2.67
2019-04-21T22:33:48.392Z,2.33
2019-04-21T22:39:16.196Z,2.60
2019-04-21T22:44:19.025Z,2.40
2019-04-21T22:49:35.061Z,2.27
2019-04-21T22:54:52.252Z,2.60
2019-04-21T23:00:14.492Z,2.50
2019-04-21T23:05:34.366Z,2.33
2019-04-21T23:10:49.678Z,2.53
2019-04-21T23:16:05.845Z,2.67
2019-04-21T23:21:41.227Z,2.40
2019-04-21T23:26:51.374Z,2.60
2019-04-21T23:32:14.943Z,2.30
2019-04-21T23:37:19.622Z,2.50
2019-04-21T23:42:36.571Z,2.40
2019-04-21T23:48:01.658Z,2.77
2019-04-21T23:53:07.590Z,2.60
2019-04-21T23:58:27.401Z,2.27
